sensor_id;sensor_type;location;lat;lon;timestamp;temperature;humidity
3005;DHT22;1512;51.486;6.610;2023-02-28T00:00:09;1.50;1.00
3005;DHT22;1512;51.486;6.610;2023-02-28T00:04:19;1.40;1.00
3005;DHT22;1512;51.486;6.610;2023-02-28T00:08:28;1.40;1.00
3005;DHT22;1512;51.486;6.610;2023-02-28T00:12:36;1.30;1.00
3005;DHT22;1512;51.486;6.610;2023-02-28T00:16:45;1.30;1.00
3005;DHT22;1512;51.486;6.610;2023-02-28T00:20:54;1.30;1.00
3005;DHT22;1512;51.486;6.610;2023-02-28T00:25:04;1.30;1.00
3005;DHT22;1512;51.486;6.610;2023-02-28T00:29:14;1.30;1.00
3005;DHT22;1512;51.486;6.610;2023-02-28T00:33:23;1.20;1.00
3005;DHT22;1512;51.486;6.610;2023-02-28T00:37:32;1.10;1.00
3005;DHT22;1512;51.486;6.610;2023-02-28T00:41:40;1.10;1.00
3005;DHT22;1512;51.486;6.610;2023-02-28T00:45:49;1.10;1.00
3005;DHT22;1512;51.486;6.610;2023-02-28T00:50:17;1.00;1.00
3005;DHT22;1512;51.486;6.610;2023-02-28T00:54:26;1.00;1.00
3005;DHT22;1512;51.486;6.610;2023-02-28T00:58:35;1.10;1.00
3005;DHT22;1512;51.486;6.610;2023-02-28T01:03:03;1.10;1.00
3005;DHT22;1512;51.486;6.610;2023-02-28T01:07:11;1.10;1.00
3005;DHT22;1512;51.486;6.610;2023-02-28T01:11:41;1.10;1.00
3005;DHT22;1512;51.486;6.610;2023-02-28T01:15:54;1.10;1.00
3005;DHT22;1512;51.486;6.610;2023-02-28T01:20:03;1.20;1.00
3005;DHT22;1512;51.486;6.610;2023-02-28T01:24:12;1.20;1.00
3005;DHT22;1512;51.486;6.610;2023-02-28T01:28:21;1.20;1.00
3005;DHT22;1512;51.486;6.610;2023-02-28T01:32:30;1.10;1.00
3005;DHT22;1512;51.486;6.610;2023-02-28T01:36:38;1.10;1.00
3005;DHT22;1512;51.486;6.610;2023-02-28T01:40:47;1.10;1.00
3005;DHT22;1512;51.486;6.610;2023-02-28T01:45:02;1.10;1.00
3005;DHT22;1512;51.486;6.610;2023-02-28T01:49:13;1.00;1.00
3005;DHT22;1512;51.486;6.610;2023-02-28T01:53:24;0.90;1.00
3005;DHT22;1512;51.486;6.610;2023-02-28T01:57:36;1.00;1.00
3005;DHT22;1512;51.486;6.610;2023-02-28T02:01:46;1.00;1.00
3005;DHT22;1512;51.486;6.610;2023-02-28T02:05:54;1.00;1.00
3005;DHT22;1512;51.486;6.610;2023-02-28T02:10:13;0.90;1.00
3005;DHT22;1512;51.486;6.610;2023-02-28T02:32:19;0.80;1.00
3005;DHT22;1512;51.486;6.610;2023-02-28T02:36:49;0.70;1.00
3005;DHT22;1512;51.486;6.610;2023-02-28T02:41:17;0.80;1.00
3005;DHT22;1512;51.486;6.610;2023-02-28T02:45:52;0.70;1.00
3005;DHT22;1512;51.486;6.610;2023-02-28T02:50:22;0.70;1.00
3005;DHT22;1512;51.486;6.610;2023-02-28T02:54:49;0.60;1.00
3005;DHT22;1512;51.486;6.610;2023-02-28T02:59:04;0.60;1.00
3005;DHT22;1512;51.486;6.610;2023-02-28T03:03:15;0.60;1.00
3005;DHT22;1512;51.486;6.610;2023-02-28T03:07:26;0.60;1.00
3005;DHT22;1512;51.486;6.610;2023-02-28T03:11:36;0.60;1.00
3005;DHT22;1512;51.486;6.610;2023-02-28T03:29:21;0.30;1.00
3005;DHT22;1512;51.486;6.610;2023-02-28T03:38:08;0.30;1.00
3005;DHT22;1512;51.486;6.610;2023-02-28T03:42:29;0.30;1.00
3005;DHT22;1512;51.486;6.610;2023-02-28T03:46:38;0.20;1.00
3005;DHT22;1512;51.486;6.610;2023-02-28T03:50:47;0.20;1.00
3005;DHT22;1512;51.486;6.610;2023-02-28T03:55:00;0.20;1.00
3005;DHT22;1512;51.486;6.610;2023-02-28T03:59:18;0.10;1.00
3005;DHT22;1512;51.486;6.610;2023-02-28T04:03:27;0.10;1.00
3005;DHT22;1512;51.486;6.610;2023-02-28T04:07:37;0.10;1.00
3005;DHT22;1512;51.486;6.610;2023-02-28T04:12:05;0.10;1.00
3005;DHT22;1512;51.486;6.610;2023-02-28T04:16:13;0.00;1.00
3005;DHT22;1512;51.486;6.610;2023-02-28T04:20:24;0.00;1.00
3005;DHT22;1512;51.486;6.610;2023-02-28T04:24:32;0.00;1.00
3005;DHT22;1512;51.486;6.610;2023-02-28T04:28:41;0.00;1.00
3005;DHT22;1512;51.486;6.610;2023-02-28T04:32:50;0.00;1.00
3005;DHT22;1512;51.486;6.610;2023-02-28T04:36:59;0.00;1.00
3005;DHT22;1512;51.486;6.610;2023-02-28T04:41:09;0.00;1.00
3005;DHT22;1512;51.486;6.610;2023-02-28T04:45:18;-0.10;1.00
3005;DHT22;1512;51.486;6.610;2023-02-28T04:49:26;-0.10;1.00
3005;DHT22;1512;51.486;6.610;2023-02-28T04:53:36;-0.10;1.00
3005;DHT22;1512;51.486;6.610;2023-02-28T04:57:45;0.00;1.00
3005;DHT22;1512;51.486;6.610;2023-02-28T05:01:54;0.00;1.00
3005;DHT22;1512;51.486;6.610;2023-02-28T05:06:02;-0.10;1.00
3005;DHT22;1512;51.486;6.610;2023-02-28T05:10:11;0.00;1.00
3005;DHT22;1512;51.486;6.610;2023-02-28T05:14:39;-0.10;1.00
3005;DHT22;1512;51.486;6.610;2023-02-28T05:19:07;-0.10;1.00
3005;DHT22;1512;51.486;6.610;2023-02-28T05:23:17;-0.20;1.00
3005;DHT22;1512;51.486;6.610;2023-02-28T05:27:28;-0.20;1.00
3005;DHT22;1512;51.486;6.610;2023-02-28T05:31:37;-0.30;1.00
3005;DHT22;1512;51.486;6.610;2023-02-28T05:35:46;-0.40;1.00
3005;DHT22;1512;51.486;6.610;2023-02-28T05:39:54;-0.40;1.00
3005;DHT22;1512;51.486;6.610;2023-02-28T05:44:03;-0.40;1.00
3005;DHT22;1512;51.486;6.610;2023-02-28T05:48:12;-0.40;1.00
3005;DHT22;1512;51.486;6.610;2023-02-28T05:52:20;-0.40;1.00
3005;DHT22;1512;51.486;6.610;2023-02-28T05:56:29;-0.30;1.00
3005;DHT22;1512;51.486;6.610;2023-02-28T06:00:38;-0.30;1.00
3005;DHT22;1512;51.486;6.610;2023-02-28T06:04:48;-0.30;1.00
3005;DHT22;1512;51.486;6.610;2023-02-28T06:08:57;-0.30;1.00
3005;DHT22;1512;51.486;6.610;2023-02-28T06:13:25;-0.30;1.00
3005;DHT22;1512;51.486;6.610;2023-02-28T06:17:33;-0.30;1.00
3005;DHT22;1512;51.486;6.610;2023-02-28T06:21:43;-0.40;1.00
3005;DHT22;1512;51.486;6.610;2023-02-28T06:25:52;-0.40;1.00
3005;DHT22;1512;51.486;6.610;2023-02-28T06:30:03;-0.30;1.00
3005;DHT22;1512;51.486;6.610;2023-02-28T06:34:12;-0.30;1.00
3005;DHT22;1512;51.486;6.610;2023-02-28T06:38:21;-0.30;1.00
3005;DHT22;1512;51.486;6.610;2023-02-28T06:42:29;-0.40;1.00
3005;DHT22;1512;51.486;6.610;2023-02-28T06:46:40;-0.40;1.00
3005;DHT22;1512;51.486;6.610;2023-02-28T06:50:49;-0.40;1.00
3005;DHT22;1512;51.486;6.610;2023-02-28T06:54:57;-0.40;1.00
3005;DHT22;1512;51.486;6.610;2023-02-28T06:59:09;-0.40;1.00
3005;DHT22;1512;51.486;6.610;2023-02-28T07:03:18;-0.40;1.00
3005;DHT22;1512;51.486;6.610;2023-02-28T07:07:27;-0.40;1.00
3005;DHT22;1512;51.486;6.610;2023-02-28T07:11:35;-0.50;1.00
3005;DHT22;1512;51.486;6.610;2023-02-28T07:15:44;-0.60;1.00
3005;DHT22;1512;51.486;6.610;2023-02-28T07:20:14;-0.50;1.00
3005;DHT22;1512;51.486;6.610;2023-02-28T07:24:22;-0.50;1.00
3005;DHT22;1512;51.486;6.610;2023-02-28T07:28:33;-0.50;1.00
3005;DHT22;1512;51.486;6.610;2023-02-28T07:32:42;-0.50;1.00
3005;DHT22;1512;51.486;6.610;2023-02-28T07:36:53;-0.50;1.00
3005;DHT22;1512;51.486;6.610;2023-02-28T07:41:02;-0.40;1.00
3005;DHT22;1512;51.486;6.610;2023-02-28T07:45:14;-0.30;1.00
3005;DHT22;1512;51.486;6.610;2023-02-28T07:49:22;-0.20;1.00
3005;DHT22;1512;51.486;6.610;2023-02-28T07:53:31;-0.20;1.00
3005;DHT22;1512;51.486;6.610;2023-02-28T07:57:40;-0.10;1.00
3005;DHT22;1512;51.486;6.610;2023-02-28T08:02:11;0.10;1.00
3005;DHT22;1512;51.486;6.610;2023-02-28T08:06:21;0.20;1.00
3005;DHT22;1512;51.486;6.610;2023-02-28T08:10:30;0.30;1.00
3005;DHT22;1512;51.486;6.610;2023-02-28T08:14:39;0.40;1.00
3005;DHT22;1512;51.486;6.610;2023-02-28T08:18:49;0.50;1.00
3005;DHT22;1512;51.486;6.610;2023-02-28T08:22:57;0.60;1.00
3005;DHT22;1512;51.486;6.610;2023-02-28T08:27:06;0.80;1.00
3005;DHT22;1512;51.486;6.610;2023-02-28T08:31:16;0.90;1.00
3005;DHT22;1512;51.486;6.610;2023-02-28T08:35:25;1.00;1.00
3005;DHT22;1512;51.486;6.610;2023-02-28T08:39:37;1.20;1.00
3005;DHT22;1512;51.486;6.610;2023-02-28T08:43:46;1.30;1.00
3005;DHT22;1512;51.486;6.610;2023-02-28T08:47:55;1.40;1.00
3005;DHT22;1512;51.486;6.610;2023-02-28T08:52:04;1.50;1.00
3005;DHT22;1512;51.486;6.610;2023-02-28T08:56:15;1.70;1.00
3005;DHT22;1512;51.486;6.610;2023-02-28T09:00:24;1.90;1.00
3005;DHT22;1512;51.486;6.610;2023-02-28T09:04:33;2.00;1.00
3005;DHT22;1512;51.486;6.610;2023-02-28T09:08:42;2.10;1.00
3005;DHT22;1512;51.486;6.610;2023-02-28T09:12:51;2.30;1.00
3005;DHT22;1512;51.486;6.610;2023-02-28T09:17:00;2.40;1.00
3005;DHT22;1512;51.486;6.610;2023-02-28T09:21:16;2.60;1.00
3005;DHT22;1512;51.486;6.610;2023-02-28T09:25:22;2.80;1.00
3005;DHT22;1512;51.486;6.610;2023-02-28T09:29:32;3.00;1.00
3005;DHT22;1512;51.486;6.610;2023-02-28T09:33:41;3.10;99.90
3005;DHT22;1512;51.486;6.610;2023-02-28T09:37:51;3.30;99.90
3005;DHT22;1512;51.486;6.610;2023-02-28T09:42:21;3.40;99.90
3005;DHT22;1512;51.486;6.610;2023-02-28T09:46:38;3.50;99.90
3005;DHT22;1512;51.486;6.610;2023-02-28T09:50:50;3.60;99.90
3005;DHT22;1512;51.486;6.610;2023-02-28T09:55:00;3.60;99.90
3005;DHT22;1512;51.486;6.610;2023-02-28T09:59:30;3.60;99.90
3005;DHT22;1512;51.486;6.610;2023-02-28T10:03:47;3.70;99.90
3005;DHT22;1512;51.486;6.610;2023-02-28T10:08:00;3.90;99.90
3005;DHT22;1512;51.486;6.610;2023-02-28T10:12:09;4.10;99.90
3005;DHT22;1512;51.486;6.610;2023-02-28T10:16:22;4.20;99.90
3005;DHT22;1512;51.486;6.610;2023-02-28T10:20:35;4.30;99.90
3005;DHT22;1512;51.486;6.610;2023-02-28T10:24:54;4.40;99.90
3005;DHT22;1512;51.486;6.610;2023-02-28T10:29:00;4.40;99.90
3005;DHT22;1512;51.486;6.610;2023-02-28T10:33:21;4.60;99.90
3005;DHT22;1512;51.486;6.610;2023-02-28T10:37:27;4.70;99.90
3005;DHT22;1512;51.486;6.610;2023-02-28T10:41:37;5.00;99.90
3005;DHT22;1512;51.486;6.610;2023-02-28T10:50:29;5.30;99.90
3005;DHT22;1512;51.486;6.610;2023-02-28T10:54:38;5.30;99.90
3005;DHT22;1512;51.486;6.610;2023-02-28T11:03:34;5.40;99.90
3005;DHT22;1512;51.486;6.610;2023-02-28T11:07:44;5.50;99.90
3005;DHT22;1512;51.486;6.610;2023-02-28T11:11:56;5.60;99.90
3005;DHT22;1512;51.486;6.610;2023-02-28T11:16:07;5.70;99.90
3005;DHT22;1512;51.486;6.610;2023-02-28T11:20:21;5.80;99.90
3005;DHT22;1512;51.486;6.610;2023-02-28T11:29:12;5.80;99.90
3005;DHT22;1512;51.486;6.610;2023-02-28T11:33:27;6.00;99.90
3005;DHT22;1512;51.486;6.610;2023-02-28T11:50:42;6.70;99.90
3005;DHT22;1512;51.486;6.610;2023-02-28T12:08:28;6.70;99.90
3005;DHT22;1512;51.486;6.610;2023-02-28T12:13:09;6.90;99.90
3005;DHT22;1512;51.486;6.610;2023-02-28T12:26:44;6.80;99.90
3005;DHT22;1512;51.486;6.610;2023-02-28T12:31:27;6.60;99.90
3005;DHT22;1512;51.486;6.610;2023-02-28T12:40:06;6.70;99.90
3005;DHT22;1512;51.486;6.610;2023-02-28T12:44:39;6.70;99.90
3005;DHT22;1512;51.486;6.610;2023-02-28T12:49:17;6.60;99.90
3005;DHT22;1512;51.486;6.610;2023-02-28T12:53:43;6.60;99.90
3005;DHT22;1512;51.486;6.610;2023-02-28T12:58:20;6.60;99.90
3005;DHT22;1512;51.486;6.610;2023-02-28T13:02:52;6.70;99.90
3005;DHT22;1512;51.486;6.610;2023-02-28T13:16:14;6.50;99.90
3005;DHT22;1512;51.486;6.610;2023-02-28T13:20:26;6.50;99.90
3005;DHT22;1512;51.486;6.610;2023-02-28T13:29:04;6.40;99.90
3005;DHT22;1512;51.486;6.610;2023-02-28T13:33:27;6.40;99.90
3005;DHT22;1512;51.486;6.610;2023-02-28T13:37:44;6.40;99.90
3005;DHT22;1512;51.486;6.610;2023-02-28T13:41:49;6.50;99.90
3005;DHT22;1512;51.486;6.610;2023-02-28T13:46:10;6.50;99.90
3005;DHT22;1512;51.486;6.610;2023-02-28T13:50:32;6.40;99.90
3005;DHT22;1512;51.486;6.610;2023-02-28T14:00:21;6.50;99.90
3005;DHT22;1512;51.486;6.610;2023-02-28T14:08:22;6.60;99.90
3005;DHT22;1512;51.486;6.610;2023-02-28T14:13:02;6.70;99.90
3005;DHT22;1512;51.486;6.610;2023-02-28T14:17:16;6.70;99.90
3005;DHT22;1512;51.486;6.610;2023-02-28T14:21:34;6.60;99.90
3005;DHT22;1512;51.486;6.610;2023-02-28T14:26:13;6.60;99.90
3005;DHT22;1512;51.486;6.610;2023-02-28T14:31:16;6.40;99.90
3005;DHT22;1512;51.486;6.610;2023-02-28T14:35:13;6.30;99.90
3005;DHT22;1512;51.486;6.610;2023-02-28T14:39:19;6.30;99.90
3005;DHT22;1512;51.486;6.610;2023-02-28T14:43:28;6.20;99.90
3005;DHT22;1512;51.486;6.610;2023-02-28T14:47:37;6.20;99.90
3005;DHT22;1512;51.486;6.610;2023-02-28T14:51:45;6.20;99.90
3005;DHT22;1512;51.486;6.610;2023-02-28T14:55:54;6.20;99.90
3005;DHT22;1512;51.486;6.610;2023-02-28T15:00:15;6.10;99.90
3005;DHT22;1512;51.486;6.610;2023-02-28T15:04:51;6.10;99.90
3005;DHT22;1512;51.486;6.610;2023-02-28T15:09:18;6.10;99.90
3005;DHT22;1512;51.486;6.610;2023-02-28T15:13:26;6.10;99.90
3005;DHT22;1512;51.486;6.610;2023-02-28T15:17:37;6.10;99.90
3005;DHT22;1512;51.486;6.610;2023-02-28T15:21:48;6.00;99.90
3005;DHT22;1512;51.486;6.610;2023-02-28T15:25:57;6.00;99.90
3005;DHT22;1512;51.486;6.610;2023-02-28T15:30:12;5.90;99.90
3005;DHT22;1512;51.486;6.610;2023-02-28T15:34:21;5.80;99.90
3005;DHT22;1512;51.486;6.610;2023-02-28T15:38:35;5.70;99.90
3005;DHT22;1512;51.486;6.610;2023-02-28T15:43:03;5.70;99.90
3005;DHT22;1512;51.486;6.610;2023-02-28T15:47:16;5.60;99.90
3005;DHT22;1512;51.486;6.610;2023-02-28T15:51:36;5.60;99.90
3005;DHT22;1512;51.486;6.610;2023-02-28T15:55:45;5.50;99.90
3005;DHT22;1512;51.486;6.610;2023-02-28T15:59:59;5.40;99.90
3005;DHT22;1512;51.486;6.610;2023-02-28T16:04:17;5.40;99.90
3005;DHT22;1512;51.486;6.610;2023-02-28T16:08:25;5.30;99.90
3005;DHT22;1512;51.486;6.610;2023-02-28T16:12:37;5.30;99.90
3005;DHT22;1512;51.486;6.610;2023-02-28T16:16:48;5.20;99.90
3005;DHT22;1512;51.486;6.610;2023-02-28T16:20:57;5.20;99.90
3005;DHT22;1512;51.486;6.610;2023-02-28T16:25:06;5.20;99.90
3005;DHT22;1512;51.486;6.610;2023-02-28T16:29:20;5.10;99.90
3005;DHT22;1512;51.486;6.610;2023-02-28T16:33:27;5.10;99.90
3005;DHT22;1512;51.486;6.610;2023-02-28T16:37:35;5.00;99.90
3005;DHT22;1512;51.486;6.610;2023-02-28T16:41:46;5.00;99.90
3005;DHT22;1512;51.486;6.610;2023-02-28T16:45:56;5.00;99.90
3005;DHT22;1512;51.486;6.610;2023-02-28T16:50:20;4.90;99.90
3005;DHT22;1512;51.486;6.610;2023-02-28T16:54:28;4.90;99.90
3005;DHT22;1512;51.486;6.610;2023-02-28T16:58:37;4.80;99.90
3005;DHT22;1512;51.486;6.610;2023-02-28T17:02:45;4.70;99.90
3005;DHT22;1512;51.486;6.610;2023-02-28T17:06:54;4.60;99.90
3005;DHT22;1512;51.486;6.610;2023-02-28T17:11:23;4.60;99.90
3005;DHT22;1512;51.486;6.610;2023-02-28T17:15:31;4.50;99.90
3005;DHT22;1512;51.486;6.610;2023-02-28T17:19:40;4.40;99.90
3005;DHT22;1512;51.486;6.610;2023-02-28T17:23:50;4.40;99.90
3005;DHT22;1512;51.486;6.610;2023-02-28T17:27:59;4.40;99.90
3005;DHT22;1512;51.486;6.610;2023-02-28T17:32:08;4.40;99.90
3005;DHT22;1512;51.486;6.610;2023-02-28T17:36:24;4.30;99.90
3005;DHT22;1512;51.486;6.610;2023-02-28T17:40:36;4.20;99.90
3005;DHT22;1512;51.486;6.610;2023-02-28T17:44:45;4.20;99.90
3005;DHT22;1512;51.486;6.610;2023-02-28T17:48:54;4.20;99.90
3005;DHT22;1512;51.486;6.610;2023-02-28T17:53:22;4.10;99.90
3005;DHT22;1512;51.486;6.610;2023-02-28T17:57:50;4.10;99.90
3005;DHT22;1512;51.486;6.610;2023-02-28T18:01:59;4.10;99.90
3005;DHT22;1512;51.486;6.610;2023-02-28T18:06:13;4.10;99.90
3005;DHT22;1512;51.486;6.610;2023-02-28T18:10:22;4.00;99.90
3005;DHT22;1512;51.486;6.610;2023-02-28T18:14:31;3.90;99.90
3005;DHT22;1512;51.486;6.610;2023-02-28T18:18:40;3.90;99.90
3005;DHT22;1512;51.486;6.610;2023-02-28T18:22:49;3.80;99.90
3005;DHT22;1512;51.486;6.610;2023-02-28T18:26:58;3.80;99.90
3005;DHT22;1512;51.486;6.610;2023-02-28T18:31:08;3.80;99.90
3005;DHT22;1512;51.486;6.610;2023-02-28T18:35:17;3.70;99.90
3005;DHT22;1512;51.486;6.610;2023-02-28T18:39:28;3.70;1.00
3005;DHT22;1512;51.486;6.610;2023-02-28T18:43:38;3.60;99.90
3005;DHT22;1512;51.486;6.610;2023-02-28T18:47:46;3.60;99.90
3005;DHT22;1512;51.486;6.610;2023-02-28T18:51:55;3.50;99.90
3005;DHT22;1512;51.486;6.610;2023-02-28T18:56:05;3.50;99.90
3005;DHT22;1512;51.486;6.610;2023-02-28T19:00:34;3.40;99.90
3005;DHT22;1512;51.486;6.610;2023-02-28T19:04:42;3.40;99.90
3005;DHT22;1512;51.486;6.610;2023-02-28T19:08:56;3.30;99.90
3005;DHT22;1512;51.486;6.610;2023-02-28T19:13:05;3.30;99.90
3005;DHT22;1512;51.486;6.610;2023-02-28T19:17:14;3.20;99.90
3005;DHT22;1512;51.486;6.610;2023-02-28T19:21:23;3.20;1.00
3005;DHT22;1512;51.486;6.610;2023-02-28T19:25:32;3.10;99.90
3005;DHT22;1512;51.486;6.610;2023-02-28T19:29:41;3.10;1.00
3005;DHT22;1512;51.486;6.610;2023-02-28T19:33:49;3.10;1.00
3005;DHT22;1512;51.486;6.610;2023-02-28T19:37:59;3.10;1.00
3005;DHT22;1512;51.486;6.610;2023-02-28T19:42:13;3.10;1.00
3005;DHT22;1512;51.486;6.610;2023-02-28T19:46:22;3.00;1.00
3005;DHT22;1512;51.486;6.610;2023-02-28T19:50:30;3.00;1.00
3005;DHT22;1512;51.486;6.610;2023-02-28T19:54:39;3.00;1.00
3005;DHT22;1512;51.486;6.610;2023-02-28T19:58:48;3.00;1.00
3005;DHT22;1512;51.486;6.610;2023-02-28T20:02:56;2.90;1.00
3005;DHT22;1512;51.486;6.610;2023-02-28T20:07:05;2.80;1.00
3005;DHT22;1512;51.486;6.610;2023-02-28T20:11:15;2.80;1.00
3005;DHT22;1512;51.486;6.610;2023-02-28T20:15:24;2.70;1.00
3005;DHT22;1512;51.486;6.610;2023-02-28T20:19:52;2.60;1.00
3005;DHT22;1512;51.486;6.610;2023-02-28T20:24:01;2.60;1.00
3005;DHT22;1512;51.486;6.610;2023-02-28T20:28:10;2.60;1.00
3005;DHT22;1512;51.486;6.610;2023-02-28T20:32:19;2.60;1.00
3005;DHT22;1512;51.486;6.610;2023-02-28T20:36:27;2.50;1.00
3005;DHT22;1512;51.486;6.610;2023-02-28T20:40:37;2.50;1.00
3005;DHT22;1512;51.486;6.610;2023-02-28T20:44:45;2.50;1.00
3005;DHT22;1512;51.486;6.610;2023-02-28T20:48:54;2.40;1.00
3005;DHT22;1512;51.486;6.610;2023-02-28T20:53:03;2.40;1.00
3005;DHT22;1512;51.486;6.610;2023-02-28T20:57:11;2.30;1.00
3005;DHT22;1512;51.486;6.610;2023-02-28T21:01:39;2.30;1.00
3005;DHT22;1512;51.486;6.610;2023-02-28T21:05:51;2.10;1.00
3005;DHT22;1512;51.486;6.610;2023-02-28T21:10:00;2.10;1.00
3005;DHT22;1512;51.486;6.610;2023-02-28T21:14:16;2.00;1.00
3005;DHT22;1512;51.486;6.610;2023-02-28T21:18:25;2.10;1.00
3005;DHT22;1512;51.486;6.610;2023-02-28T21:22:33;2.00;1.00
3005;DHT22;1512;51.486;6.610;2023-02-28T21:26:43;1.90;1.00
3005;DHT22;1512;51.486;6.610;2023-02-28T21:31:12;1.80;1.00
3005;DHT22;1512;51.486;6.610;2023-02-28T21:35:21;1.80;1.00
3005;DHT22;1512;51.486;6.610;2023-02-28T21:39:30;1.80;1.00
3005;DHT22;1512;51.486;6.610;2023-02-28T21:43:39;1.80;1.00
3005;DHT22;1512;51.486;6.610;2023-02-28T21:47:48;1.80;1.00
3005;DHT22;1512;51.486;6.610;2023-02-28T21:51:56;1.70;1.00
3005;DHT22;1512;51.486;6.610;2023-02-28T21:56:07;1.70;1.00
3005;DHT22;1512;51.486;6.610;2023-02-28T22:00:16;1.70;1.00
3005;DHT22;1512;51.486;6.610;2023-02-28T22:04:25;1.60;1.00
3005;DHT22;1512;51.486;6.610;2023-02-28T22:08:34;1.60;1.00
3005;DHT22;1512;51.486;6.610;2023-02-28T22:13:02;1.60;1.00
3005;DHT22;1512;51.486;6.610;2023-02-28T22:17:11;1.60;1.00
3005;DHT22;1512;51.486;6.610;2023-02-28T22:21:20;1.60;1.00
3005;DHT22;1512;51.486;6.610;2023-02-28T22:25:30;1.50;1.00
3005;DHT22;1512;51.486;6.610;2023-02-28T22:29:38;1.50;1.00
3005;DHT22;1512;51.486;6.610;2023-02-28T22:33:48;1.40;1.00
3005;DHT22;1512;51.486;6.610;2023-02-28T22:37:57;1.40;1.00
3005;DHT22;1512;51.486;6.610;2023-02-28T22:42:05;1.40;1.00
3005;DHT22;1512;51.486;6.610;2023-02-28T22:46:14;1.30;1.00
3005;DHT22;1512;51.486;6.610;2023-02-28T22:50:22;1.30;1.00
3005;DHT22;1512;51.486;6.610;2023-02-28T22:54:31;1.30;1.00
3005;DHT22;1512;51.486;6.610;2023-02-28T22:58:40;1.20;1.00
3005;DHT22;1512;51.486;6.610;2023-02-28T23:02:50;1.20;1.00
3005;DHT22;1512;51.486;6.610;2023-02-28T23:07:06;1.20;1.00
3005;DHT22;1512;51.486;6.610;2023-02-28T23:11:20;1.20;1.00
3005;DHT22;1512;51.486;6.610;2023-02-28T23:15:29;1.10;1.00
3005;DHT22;1512;51.486;6.610;2023-02-28T23:19:38;1.00;1.00
3005;DHT22;1512;51.486;6.610;2023-02-28T23:23:46;1.00;1.00
3005;DHT22;1512;51.486;6.610;2023-02-28T23:27:55;0.90;1.00
3005;DHT22;1512;51.486;6.610;2023-02-28T23:32:03;0.90;1.00
3005;DHT22;1512;51.486;6.610;2023-02-28T23:36:14;0.90;1.00
3005;DHT22;1512;51.486;6.610;2023-02-28T23:40:23;0.90;1.00
3005;DHT22;1512;51.486;6.610;2023-02-28T23:44:32;0.90;1.00
3005;DHT22;1512;51.486;6.610;2023-02-28T23:48:42;0.90;1.00
3005;DHT22;1512;51.486;6.610;2023-02-28T23:52:51;0.90;1.00
3005;DHT22;1512;51.486;6.610;2023-02-28T23:57:00;0.90;1.00
